Flight Track Log - Related Links

Times and Time Zones

All times are in EDT time to prevent confusion due to time zone crossing. See the ASQ5719 flight status page for this flight to view local times or setup timezone preferences in your user account.

Time Position Orientation Groundspeed Altitude Reporting Facility
EDT Latitude Longitude Course Direction KTS MPH feet Rate Location/Type
Thu 05:10:22 PM 38.9833 -77.4667 72° East 169 194 1,700  Level Potomac TRACON
Thu 05:11:17 PM 39.0500 -77.4667 360° North 245 282 3,200 2,609 Climbing Potomac TRACON
Thu 05:12:17 PM 39.1167 -77.4667 360° North 266 306 6,700 2,118 Climbing Potomac TRACON
Thu 05:13:00 PM 39.0167 -76.9846 90° East  Level FlightAware Approximate
Thu 05:14:00 PM 39.0372 -76.8679 72° East  Level FlightAware Approximate
Thu 05:14:41 PM 39.1147 -77.2314 91° East 306 352 10,400  Level Washington Center
Thu 05:15:00 PM 39.0501 -76.7497 72° East  Level FlightAware Approximate
Thu 05:15:41 PM 39.0750 -77.0969 111° Southeast 339 390 12,300  Level Washington Center
Thu 05:16:43 PM 39.0744 -76.9578 90° East 365 420 14,200 1,918 Climbing Washington Center
Thu 05:17:43 PM 39.0886 -76.8164 83° East 382 440 16,200 1,983 Climbing Washington Center
Thu 05:18:41 PM 39.1044 -76.6803 81° East 387 445 18,100 1,765 Climbing Washington Center
Thu 05:19:42 PM 39.1181 -76.5414 83° East 387 445 19,700 1,377 Climbing Washington Center
Thu 05:20:43 PM 39.1317 -76.3997 83° East 387 445 20,900 1,131 Climbing Washington Center
Thu 05:21:44 PM 39.1450 -76.2525 83° East 397 457 22,000 1,059 Climbing Washington Center
Thu 05:22:42 PM 39.1667 -76.1028 79° East 408 470 23,000 508 Climbing Washington Center
Thu 05:23:42 PM 39.1858 -75.9478 81° East 420 483 23,000 250 Level Washington Center
Thu 05:24:42 PM 39.2467 -75.8139 60° Northeast 428 493 23,500 694 Climbing Washington Center
Thu 05:25:43 PM 39.3322 -75.7042 45° Northeast 423 487 24,400 756 Climbing Washington Center
Thu 05:26:41 PM 39.4178 -75.5917 45° Northeast 423 487 25,000 303 Climbing Washington Center
Thu 05:27:42 PM 39.5050 -75.4758 46° Northeast 428 493 25,000  Level Washington Center
Thu 05:29:17 PM 39.6472 -75.2950 44° Northeast 444 511 25,000  Level New York Center
Thu 05:30:19 PM 39.7311 -75.1761 47° Northeast 444 511 25,000 450 Level New York Center
Thu 05:31:17 PM 39.8150 -75.0492 49° Northeast 450 518 25,900 1,000 Climbing New York Center
Thu 05:32:19 PM 39.8939 -74.9403 47° Northeast 444 511 27,000 550 Climbing New York Center
Thu 05:33:17 PM 39.9794 -74.8208 47° Northeast 444 511 27,000  Level New York Center
Thu 05:34:17 PM 40.0606 -74.7033 48° Northeast 439 505 27,000  Level New York Center
Thu 05:35:19 PM 40.1456 -74.5861 46° Northeast 439 505 27,000  Level New York Center
Thu 05:36:19 PM 40.2436 -74.4581 45° Northeast 445 512 27,000  Level New York Center
Thu 05:37:17 PM 40.3592 -74.4236 13° North 431 496 27,000  Level New York Center
Thu 05:38:18 PM 40.4811 -74.3917 11° North 420 483 27,000  Level New York Center
Thu 05:39:18 PM 40.5967 -74.3597 12° North 426 490 27,000  Level New York Center
Thu 05:40:18 PM 40.7142 -74.3303 11° North 426 490 27,000  Level New York Center
Thu 05:42:27 PM 40.9767 -74.2711 10° North 430 495 27,000  Level Boston Center
Thu 05:43:27 PM 41.0961 -74.2386 12° North 430 495 27,000  Level Boston Center
Thu 05:44:27 PM 41.2153 -74.2089 11° North 430 495 27,000  Level Boston Center
Thu 05:45:27 PM 41.3219 -74.1758 13° North 430 495 27,000  Level Boston Center
Thu 05:46:27 PM 41.4414 -74.1458 11° North 430 495 27,000  Level Boston Center
Thu 05:47:27 PM 41.5794 -74.1136 10° North 438 504 27,000  Level Boston Center
Thu 05:48:27 PM 41.7008 -74.0806 11° North 446 513 27,000  Level Boston Center
Thu 05:49:27 PM 41.7950 -74.0383 18° North 446 513 27,000  Level Boston Center
Thu 05:50:27 PM 41.9394 -73.9947 13° North 446 513 27,000  Level Boston Center
Thu 05:51:27 PM 42.0631 -73.9558 13° North 446 513 27,000  Level Boston Center
Thu 05:52:27 PM 42.1886 -73.9167 13° North 451 519 27,000  Level Boston Center
Thu 05:53:27 PM 42.3142 -73.8747 14° North 451 519 27,000  Level Boston Center
Thu 05:54:27 PM 42.4356 -73.8383 12° North 451 519 27,000  Level Boston Center
Thu 05:55:27 PM 42.5361 -73.8039 14° North 451 519 27,000  Level Boston Center
Thu 05:56:27 PM 42.6719 -73.7589 14° North 451 519 27,000  Level Boston Center
Thu 05:57:27 PM 42.8081 -73.7136 14° North 451 519 27,000  Level Boston Center
Thu 05:58:27 PM 42.9208 -73.6792 13° North 456 525 27,000 -400 Level Boston Center
Thu 05:59:27 PM 43.0464 -73.6361 14° North 451 519 26,200 -864 Descending Boston Center
Thu 06:00:39 PM 43.1825 -73.5906 14° North 451 519 25,100 -1,000 Descending Boston Center
Thu 06:01:39 PM 43.3267 -73.5417 14° North 451 519 24,000 -550 Descending Boston Center
Thu 06:02:39 PM 43.4436 -73.5039 13° North 445 512 24,000  Level Boston Center
Thu 06:03:39 PM 43.5650 -73.4658 13° North 440 506 24,000 -350 Level Boston Center
Thu 06:04:39 PM 43.6842 -73.4247 14° North 440 506 23,300 -1,750 Descending Boston Center
Thu 06:05:39 PM 43.7947 -73.3892 13° North 419 482 20,500 -3,050 Descending Boston Center
Thu 06:06:39 PM 43.8931 -73.3561 14° North 403 464 17,200 -3,400 Descending Boston Center
Thu 06:07:39 PM 43.9911 -73.3231 14° North 375 432 13,700 -3,350 Descending Boston Center
Thu 06:08:39 PM 44.0808 -73.3358 354° North 334 384 10,500 -2,800 Descending Boston Center
Thu 06:09:39 PM 44.1597 -73.3486 353° North 296 341 8,100 -2,100 Descending Boston Center
Thu 06:10:39 PM 44.2328 -73.3586 354° North 273 314 6,300 -1,750 Descending Boston Center
Thu 06:11:39 PM 44.3014 -73.3683 354° North 254 292 4,600 -1,650 Descending Boston Center
Thu 06:12:39 PM 44.3744 -73.3519 North 254 292 3,000 -1,300 Descending Boston Center
Thu 06:13:39 PM 44.4433 -73.3239 16° North 254 292 2,000 -1,000 Descending Boston Center

Login

Don't have an account? Register now (free) for customized features, flight alerts, and more!